createdAt,value
2022-07-25T00:01:42.911Z,97089.06
2022-07-25T00:04:12.181Z,97081.06
2022-07-25T00:06:39.471Z,97085.56
2022-07-25T00:09:06.200Z,97086.34
2022-07-25T00:11:32.967Z,97078.66
2022-07-25T00:13:59.624Z,97081.66
2022-07-25T00:16:26.524Z,97077.94
2022-07-25T00:18:53.141Z,97071.66
2022-07-25T00:21:19.751Z,97081.41
2022-07-25T00:23:46.346Z,97076.66
2022-07-25T00:26:12.943Z,97076.97
2022-07-25T00:28:39.527Z,97084.56
2022-07-25T00:31:06.180Z,97071.94
2022-07-25T00:33:32.840Z,97083.72
2022-07-25T00:35:59.805Z,97075.06
2022-07-25T00:38:26.416Z,97074.19
2022-07-25T00:40:54.250Z,97074.06
2022-07-25T00:43:22.149Z,97075.06
2022-07-25T00:45:48.699Z,97069.66
2022-07-25T00:48:15.225Z,97066.13
2022-07-25T00:50:42.207Z,97065.56
2022-07-25T00:53:08.817Z,97063.63
2022-07-25T00:55:36.070Z,97059.97
2022-07-25T00:58:02.624Z,97061.94
2022-07-25T01:00:29.534Z,97064.06
2022-07-25T01:02:57.485Z,97061.03
2022-07-25T01:05:24.175Z,97054.84
2022-07-25T01:07:52.019Z,97055.31
2022-07-25T01:10:18.659Z,97054.69
2022-07-25T01:12:55.855Z,97055.72
2022-07-25T01:15:25.966Z,97048.47
2022-07-25T01:17:53.255Z,97041.38
2022-07-25T01:20:25.100Z,97040.63
2022-07-25T01:22:52.739Z,97040.06
2022-07-25T01:25:20.020Z,97038.94
2022-07-25T01:27:51.355Z,97041.31
2022-07-25T01:30:22.832Z,97035.25
2022-07-25T01:32:49.436Z,97030.50
2022-07-25T01:35:16.443Z,97026.97
2022-07-25T01:37:45.434Z,97030.09
2022-07-25T01:40:14.252Z,97036.69
2022-07-25T01:42:42.023Z,97030.34
2022-07-25T01:45:09.542Z,97027.34
2022-07-25T01:47:36.143Z,97031.41
2022-07-25T01:50:03.734Z,97026.69
2022-07-25T01:52:30.294Z,97028.09
2022-07-25T01:54:56.866Z,97025.97
2022-07-25T01:57:30.092Z,97015.00
2022-07-25T01:59:58.597Z,97019.72
2022-07-25T02:02:25.348Z,97007.28
2022-07-25T02:04:51.976Z,97001.81
2022-07-25T02:07:18.614Z,97004.38
2022-07-25T02:09:45.180Z,97000.59
2022-07-25T02:12:11.882Z,96997.38
2022-07-25T02:14:38.540Z,96990.44
2022-07-25T02:17:05.324Z,96990.94
2022-07-25T02:19:31.907Z,96992.66
2022-07-25T02:21:58.473Z,96987.91
2022-07-25T02:24:25.031Z,96990.00
2022-07-25T02:26:51.698Z,96985.25
2022-07-25T02:29:18.388Z,96987.91
2022-07-25T02:31:48.555Z,96992.63
2022-07-25T02:34:15.139Z,96988.19
2022-07-25T02:36:41.684Z,96989.72
2022-07-25T02:39:08.262Z,96989.19
2022-07-25T02:41:34.839Z,96992.41
2022-07-25T02:44:01.377Z,96981.81
2022-07-25T02:46:27.963Z,96981.69
2022-07-25T02:48:54.691Z,96986.84
2022-07-25T02:51:21.296Z,96990.38
2022-07-25T02:53:57.077Z,96995.53
2022-07-25T02:56:24.112Z,96991.88
2022-07-25T02:58:51.133Z,96984.75
2022-07-25T03:01:17.830Z,96981.63
2022-07-25T03:03:44.554Z,96980.25
2022-07-25T03:06:11.131Z,96980.97
2022-07-25T03:08:37.747Z,96984.84
2022-07-25T03:11:04.737Z,96977.59
2022-07-25T03:13:33.080Z,96977.31
2022-07-25T03:15:59.740Z,96974.91
2022-07-25T03:18:26.348Z,96975.50
2022-07-25T03:20:53.038Z,96980.16
2022-07-25T03:23:19.559Z,96971.50
2022-07-25T03:25:46.135Z,96974.97
2022-07-25T03:28:12.710Z,96969.09
2022-07-25T03:30:39.298Z,96965.31
2022-07-25T03:33:05.821Z,96967.56
2022-07-25T03:35:32.414Z,96965.38
2022-07-25T03:37:59.034Z,96961.91
2022-07-25T03:40:25.626Z,96963.97
2022-07-25T03:42:52.194Z,96962.31
2022-07-25T03:45:18.761Z,96973.19
2022-07-25T03:47:45.349Z,96963.56
2022-07-25T03:50:12.145Z,96964.00
2022-07-25T03:52:38.826Z,96959.19
2022-07-25T03:55:10.048Z,96964.50
2022-07-25T03:57:37.009Z,96966.31
2022-07-25T04:00:06.178Z,96959.91
2022-07-25T04:02:33.256Z,96966.59
2022-07-25T04:04:59.824Z,96967.53
2022-07-25T04:07:26.658Z,96968.34
2022-07-25T04:09:53.146Z,96965.88
2022-07-25T04:12:19.809Z,96966.56
2022-07-25T04:14:46.354Z,96961.47
2022-07-25T04:17:13.063Z,96965.66
2022-07-25T04:19:39.744Z,96959.63
2022-07-25T04:22:06.418Z,96965.84
2022-07-25T04:24:32.979Z,96962.38
2022-07-25T04:26:59.565Z,96964.91
2022-07-25T04:29:26.087Z,96966.47
2022-07-25T04:31:52.671Z,96959.75
2022-07-25T04:34:19.490Z,96960.13
2022-07-25T04:36:46.079Z,96961.53
2022-07-25T04:39:12.672Z,96959.66
2022-07-25T04:41:39.295Z,96958.63
2022-07-25T04:44:07.638Z,96958.56
2022-07-25T04:46:34.922Z,96953.28
2022-07-25T04:49:01.722Z,96964.59
2022-07-25T04:51:28.384Z,96960.44
2022-07-25T04:53:54.955Z,96958.13
2022-07-25T04:56:21.486Z,96949.13
2022-07-25T04:58:48.037Z,96954.50
2022-07-25T05:01:14.778Z,96948.75
2022-07-25T05:03:41.351Z,96944.91
2022-07-25T05:06:16.736Z,96948.09
2022-07-25T05:08:43.426Z,96938.41
2022-07-25T05:11:10.030Z,96943.00
2022-07-25T05:13:36.606Z,96936.19
2022-07-25T05:16:03.238Z,96935.78
2022-07-25T05:18:29.872Z,96930.63
2022-07-25T05:20:56.552Z,96922.03
2022-07-25T05:23:23.084Z,96932.78
2022-07-25T05:25:49.629Z,96922.63
2022-07-25T05:28:17.749Z,96928.41
2022-07-25T05:30:44.342Z,96935.81
2022-07-25T05:33:10.940Z,96918.78
2022-07-25T05:35:37.625Z,96922.25
2022-07-25T05:38:05.437Z,96915.84
2022-07-25T05:40:32.004Z,96927.50
2022-07-25T05:43:02.986Z,96914.00
2022-07-25T05:45:30.649Z,96918.09
2022-07-25T05:47:57.183Z,96903.03
2022-07-25T05:50:23.801Z,96912.13
2022-07-25T05:52:50.414Z,96918.66
2022-07-25T05:55:17.614Z,96914.56
2022-07-25T05:57:44.194Z,96913.06
2022-07-25T06:00:11.308Z,96914.41
2022-07-25T06:02:38.267Z,96904.41
2022-07-25T06:05:05.395Z,96908.31
2022-07-25T06:07:31.920Z,96909.41
2022-07-25T06:09:58.761Z,96909.13
2022-07-25T06:12:25.390Z,96912.94
2022-07-25T06:14:52.173Z,96905.47
2022-07-25T06:17:18.784Z,96906.78
2022-07-25T06:19:45.451Z,96893.16
2022-07-25T06:22:12.593Z,96891.78
2022-07-25T06:24:41.638Z,96903.81
2022-07-25T06:27:08.734Z,96893.69
2022-07-25T06:29:35.483Z,96898.38
2022-07-25T06:32:02.112Z,96891.25
2022-07-25T06:34:29.060Z,96897.53
2022-07-25T06:36:57.497Z,96903.34
2022-07-25T06:39:25.385Z,96889.03
2022-07-25T06:41:52.410Z,96888.59
2022-07-25T06:44:19.105Z,96888.19
2022-07-25T06:46:45.708Z,96891.16
2022-07-25T06:49:12.480Z,96890.53
2022-07-25T06:51:39.108Z,96888.25
2022-07-25T06:54:05.969Z,96881.69
2022-07-25T06:56:33.056Z,96892.09
2022-07-25T06:59:00.431Z,96888.88
2022-07-25T07:01:27.494Z,96879.78
2022-07-25T07:03:54.155Z,96881.38
2022-07-25T07:06:20.784Z,96881.69
2022-07-25T07:08:47.330Z,96878.53
2022-07-25T07:11:15.354Z,96878.78
2022-07-25T07:13:41.978Z,96883.66
2022-07-25T07:16:08.855Z,96871.72
2022-07-25T07:18:35.560Z,96872.88
2022-07-25T07:21:02.182Z,96868.72
2022-07-25T07:23:29.027Z,96860.47
2022-07-25T07:25:56.439Z,96857.84
2022-07-25T07:28:23.133Z,96851.88
2022-07-25T07:31:15.029Z,96859.63
2022-07-25T07:33:37.620Z,96853.44
2022-07-25T07:36:04.421Z,96850.06
2022-07-25T07:38:30.966Z,96842.25
2022-07-25T07:40:57.516Z,96837.78
2022-07-25T07:43:29.370Z,96832.66
2022-07-25T07:45:56.749Z,96837.53
2022-07-25T07:48:23.309Z,96839.38
2022-07-25T07:50:49.835Z,96841.31
2022-07-25T07:53:16.374Z,96834.34
2022-07-25T07:55:45.930Z,96832.50
2022-07-25T07:58:15.844Z,96835.38
2022-07-25T08:00:44.259Z,96830.13
2022-07-25T08:03:10.898Z,96831.38
2022-07-25T08:05:42.960Z,96834.09
2022-07-25T08:08:12.056Z,96821.28
2022-07-25T08:10:41.225Z,96819.94
2022-07-25T08:13:17.851Z,96812.69
2022-07-25T08:15:48.507Z,96818.50
2022-07-25T08:18:17.468Z,96815.84
2022-07-25T08:20:48.640Z,96807.31
2022-07-25T08:23:15.577Z,96819.75
2022-07-25T08:25:43.233Z,96814.16
2022-07-25T08:28:10.297Z,96817.28
2022-07-25T08:30:38.274Z,96811.63
2022-07-25T08:33:07.994Z,96806.03
2022-07-25T08:35:34.861Z,96813.94
2022-07-25T08:38:02.788Z,96812.47
2022-07-25T08:40:30.451Z,96803.66
2022-07-25T08:42:58.475Z,96812.09
2022-07-25T08:45:26.742Z,96809.56
2022-07-25T08:47:54.556Z,96804.59
2022-07-25T08:50:23.888Z,96804.16
2022-07-25T08:52:57.439Z,96798.06
2022-07-25T08:55:36.965Z,96798.78
2022-07-25T08:58:03.549Z,96797.22
2022-07-25T09:00:30.151Z,96790.72
2022-07-25T09:03:02.528Z,96795.31
2022-07-25T09:05:32.010Z,96787.44
2022-07-25T09:08:10.435Z,96782.25
2022-07-25T09:10:39.242Z,96774.88
2022-07-25T09:13:10.904Z,96781.47
2022-07-25T09:15:40.846Z,96776.69
2022-07-25T09:18:15.975Z,96771.66
2022-07-25T09:20:46.358Z,96772.00
2022-07-25T09:23:28.274Z,96769.78
2022-07-25T09:26:14.685Z,96769.03
2022-07-25T09:28:47.405Z,96772.28
2022-07-25T09:31:15.635Z,96766.41
2022-07-25T09:33:51.696Z,96759.78
2022-07-25T09:36:18.762Z,96766.03
2022-07-25T09:38:55.905Z,96764.66
2022-07-25T09:41:22.884Z,96760.53
2022-07-25T09:43:49.412Z,96762.72
2022-07-25T09:46:16.018Z,96763.78
2022-07-25T09:48:45.199Z,96763.63
2022-07-25T09:51:12.209Z,96747.56
2022-07-25T09:53:40.348Z,96758.56
2022-07-25T09:56:08.188Z,96748.69
2022-07-25T09:58:34.651Z,96749.78
2022-07-25T10:01:05.314Z,96751.41
2022-07-25T10:03:51.404Z,96754.03
2022-07-25T10:06:34.823Z,96738.97
2022-07-25T10:09:01.485Z,96745.06
2022-07-25T10:11:29.920Z,96739.22
2022-07-25T10:13:57.130Z,96737.66
2022-07-25T10:16:26.043Z,96734.94
2022-07-25T10:18:57.851Z,96725.94
2022-07-25T10:21:27.954Z,96736.75
2022-07-25T10:24:03.713Z,96718.69
2022-07-25T10:26:31.352Z,96713.47
2022-07-25T10:28:59.090Z,96721.78
2022-07-25T10:31:34.489Z,96721.38
2022-07-25T10:34:04.228Z,96716.88
2022-07-25T10:36:49.256Z,96714.13
2022-07-25T10:39:18.363Z,96710.22
2022-07-25T10:41:58.559Z,96700.22
2022-07-25T10:44:30.495Z,96695.38
2022-07-25T10:47:08.539Z,96696.63
2022-07-25T10:50:13.494Z,96695.16
2022-07-25T10:52:30.655Z,96690.75
2022-07-25T10:54:59.362Z,96684.88
2022-07-25T10:57:31.446Z,96678.47
2022-07-25T11:00:06.617Z,96687.56
2022-07-25T11:02:33.219Z,96684.78
2022-07-25T11:05:02.030Z,96673.06
2022-07-25T11:07:29.121Z,96676.03
2022-07-25T11:10:01.254Z,96664.72
2022-07-25T11:12:27.998Z,96665.81
2022-07-25T11:15:08.153Z,96665.03
2022-07-25T11:17:34.833Z,96658.16
2022-07-25T11:20:06.910Z,96660.94
2022-07-25T11:22:34.620Z,96651.41
2022-07-25T11:25:02.351Z,96658.41
2022-07-25T11:27:31.543Z,96659.19
2022-07-25T11:30:15.632Z,96654.72
2022-07-25T11:32:49.681Z,96663.94
2022-07-25T11:35:22.082Z,96659.25
2022-07-25T11:37:50.741Z,96655.19
2022-07-25T11:40:18.568Z,96647.34
2022-07-25T11:42:48.229Z,96651.25
2022-07-25T11:45:34.064Z,96645.38
2022-07-25T11:48:05.318Z,96640.28
2022-07-25T11:50:33.503Z,96636.44
2022-07-25T11:53:01.611Z,96633.00
2022-07-25T11:55:30.631Z,96632.50
2022-07-25T11:58:01.812Z,96639.34
2022-07-25T12:00:29.586Z,96629.41
2022-07-25T12:03:12.093Z,96633.44
2022-07-25T12:05:42.329Z,96621.13
2022-07-25T12:08:17.662Z,96628.56
2022-07-25T12:10:47.535Z,96621.66
2022-07-25T12:13:28.653Z,96620.13
2022-07-25T12:15:59.716Z,96614.72
2022-07-25T12:18:27.367Z,96620.88
2022-07-25T12:20:54.050Z,96621.75
2022-07-25T12:23:23.593Z,96609.53
2022-07-25T12:25:50.873Z,96614.59
2022-07-25T12:28:17.910Z,96609.47
2022-07-25T12:30:46.420Z,96606.19
2022-07-25T12:33:13.605Z,96608.41
2022-07-25T12:35:41.238Z,96605.50
2022-07-25T12:38:07.940Z,96609.00
2022-07-25T12:40:34.626Z,96596.72
2022-07-25T12:43:01.362Z,96598.69
2022-07-25T12:45:28.193Z,96595.47
2022-07-25T12:47:54.966Z,96593.50
2022-07-25T12:50:22.330Z,96592.63
2022-07-25T12:52:48.960Z,96589.28
2022-07-25T12:55:18.518Z,96594.13
2022-07-25T12:57:46.243Z,96596.47
2022-07-25T13:00:15.648Z,96585.38
2022-07-25T13:02:42.662Z,96577.47
2022-07-25T13:05:10.269Z,96581.38
2022-07-25T13:07:37.102Z,96574.28
2022-07-25T13:10:04.714Z,96560.41
2022-07-25T13:12:31.448Z,96560.38
2022-07-25T13:14:57.996Z,96557.53
2022-07-25T13:17:27.544Z,96559.97
2022-07-25T13:19:55.380Z,96558.50
2022-07-25T13:22:21.961Z,96558.34
2022-07-25T13:24:48.577Z,96552.06
2022-07-25T13:27:17.566Z,96555.88
2022-07-25T13:29:44.146Z,96546.56
2022-07-25T13:32:11.954Z,96545.25
2022-07-25T13:34:38.611Z,96537.69
2022-07-25T13:37:05.625Z,96538.25
2022-07-25T13:39:32.136Z,96534.72
2022-07-25T13:41:58.720Z,96533.94
2022-07-25T13:44:25.209Z,96528.34
2022-07-25T13:46:51.774Z,96525.38
2022-07-25T13:49:18.478Z,96519.66
2022-07-25T13:51:45.669Z,96527.28
2022-07-25T13:54:12.946Z,96513.69
2022-07-25T13:56:41.395Z,96509.78
2022-07-25T13:59:08.870Z,96512.50
2022-07-25T14:01:36.285Z,96512.81
2022-07-25T14:04:02.964Z,96503.81
2022-07-25T14:06:29.575Z,96508.97
2022-07-25T14:08:56.129Z,96510.28
2022-07-25T14:11:26.037Z,96495.88
2022-07-25T14:13:56.907Z,96498.91
2022-07-25T14:16:23.492Z,96497.88
2022-07-25T14:18:50.792Z,96489.81
2022-07-25T14:21:17.515Z,96483.91
2022-07-25T14:23:44.128Z,96484.75
2022-07-25T14:26:10.682Z,96479.69
2022-07-25T14:28:37.491Z,96484.34
2022-07-25T14:31:04.100Z,96480.03
2022-07-25T14:33:30.769Z,96475.94
2022-07-25T14:35:57.386Z,96474.50
2022-07-25T14:38:23.927Z,96476.53
2022-07-25T14:40:51.429Z,96470.47
2022-07-25T14:43:18.078Z,96471.94
2022-07-25T14:45:44.718Z,96467.19
2022-07-25T14:48:11.250Z,96463.63
2022-07-25T14:50:37.831Z,96450.81
2022-07-25T14:53:04.360Z,96448.53
2022-07-25T14:55:31.421Z,96445.31
2022-07-25T14:58:02.324Z,96441.09
2022-07-25T15:00:29.764Z,96435.59
2022-07-25T15:02:57.140Z,96437.19
2022-07-25T15:05:23.738Z,96433.81
2022-07-25T15:07:50.381Z,96433.19
2022-07-25T15:10:17.396Z,96423.19
2022-07-25T15:12:43.943Z,96419.84
2022-07-25T15:15:11.485Z,96425.56
2022-07-25T15:17:38.729Z,96426.06
2022-07-25T15:20:05.880Z,96425.38
2022-07-25T15:22:32.512Z,96425.75
2022-07-25T15:25:34.808Z,96420.31
2022-07-25T15:27:45.687Z,96424.81
2022-07-25T15:30:12.928Z,96416.81
2022-07-25T15:32:40.205Z,96408.94
2022-07-25T15:35:07.132Z,96406.09
2022-07-25T15:37:33.704Z,96406.94
2022-07-25T15:40:00.457Z,96402.31
2022-07-25T15:42:29.181Z,96405.25
2022-07-25T15:45:22.348Z,96405.59
2022-07-25T15:47:45.198Z,96402.03
2022-07-25T15:50:15.571Z,96391.47
2022-07-25T15:52:42.153Z,96397.56
2022-07-25T15:55:08.927Z,96389.44
2022-07-25T15:57:35.526Z,96390.03
2022-07-25T16:00:02.400Z,96391.97
2022-07-25T16:02:28.945Z,96383.78
2022-07-25T16:04:55.536Z,96382.44
2022-07-25T16:07:22.170Z,96376.69
2022-07-25T16:09:49.835Z,96375.38
2022-07-25T16:12:16.531Z,96373.75
2022-07-25T16:14:43.119Z,96374.00
2022-07-25T16:17:09.906Z,96372.91
2022-07-25T16:19:36.461Z,96366.09
2022-07-25T16:22:02.997Z,96364.25
2022-07-25T16:24:29.578Z,96363.47
2022-07-25T16:26:56.225Z,96361.84
2022-07-25T16:29:22.836Z,96362.13
2022-07-25T16:31:51.055Z,96356.94
2022-07-25T16:34:17.687Z,96362.41
2022-07-25T16:36:44.385Z,96357.25
2022-07-25T16:39:11.141Z,96356.41
2022-07-25T16:41:37.840Z,96358.91
2022-07-25T16:44:04.681Z,96343.31
2022-07-25T16:46:31.381Z,96345.50
2022-07-25T16:48:58.070Z,96346.06
2022-07-25T16:51:24.762Z,96351.50
2022-07-25T16:53:51.291Z,96347.06
2022-07-25T16:56:18.091Z,96335.84
2022-07-25T16:58:46.546Z,96328.94
2022-07-25T17:01:14.232Z,96341.22
2022-07-25T17:03:41.013Z,96329.75
2022-07-25T17:06:08.334Z,96334.75
2022-07-25T17:08:37.767Z,96322.69
2022-07-25T17:11:05.225Z,96324.00
2022-07-25T17:13:31.763Z,96328.94
2022-07-25T17:15:58.540Z,96323.16
2022-07-25T17:18:25.353Z,96320.69
2022-07-25T17:20:53.188Z,96317.66
2022-07-25T17:23:19.788Z,96326.13
2022-07-25T17:25:50.505Z,96326.91
2022-07-25T17:28:17.881Z,96320.91
2022-07-25T17:30:45.624Z,96323.34
2022-07-25T17:33:12.245Z,96318.06
2022-07-25T17:35:38.827Z,96319.97
2022-07-25T17:38:05.912Z,96318.28
2022-07-25T17:40:34.507Z,96321.47
2022-07-25T17:43:01.022Z,96333.44
2022-07-25T17:45:27.557Z,96336.09
2022-07-25T17:47:54.255Z,96333.91
2022-07-25T17:50:28.612Z,96328.25
2022-07-25T17:52:58.863Z,96328.69
2022-07-25T17:55:26.163Z,96337.34
2022-07-25T17:57:55.509Z,96335.34
2022-07-25T18:00:23.552Z,96330.59
2022-07-25T18:02:50.620Z,96335.06
2022-07-25T18:05:18.472Z,96334.91
2022-07-25T18:07:48.204Z,96335.31
2022-07-25T18:10:18.329Z,96344.41
2022-07-25T18:12:45.140Z,96349.22
2022-07-25T18:15:12.344Z,96359.59
2022-07-25T18:17:40.968Z,96355.59
2022-07-25T18:20:08.194Z,96348.97
2022-07-25T18:22:34.778Z,96352.63
2022-07-25T18:25:01.393Z,96355.59
2022-07-25T18:27:27.958Z,96353.59
2022-07-25T18:29:54.552Z,96349.56
2022-07-25T18:32:21.156Z,96363.25
2022-07-25T18:34:47.717Z,96360.06
2022-07-25T18:37:14.313Z,96364.75
2022-07-25T18:39:42.106Z,96367.84
2022-07-25T18:42:08.635Z,96380.59
2022-07-25T18:44:35.188Z,96375.78
2022-07-25T18:47:02.737Z,96380.25
2022-07-25T18:49:29.403Z,96372.63
2022-07-25T18:51:55.937Z,96380.72
2022-07-25T18:54:22.571Z,96388.59
2022-07-25T18:56:49.098Z,96392.22
2022-07-25T18:59:16.027Z,96388.47
2022-07-25T19:01:42.663Z,96390.22
2022-07-25T19:04:09.563Z,96381.72
2022-07-25T19:06:36.619Z,96407.72
2022-07-25T19:09:03.694Z,96430.19
2022-07-25T19:11:30.388Z,96438.91
2022-07-25T19:13:57.565Z,96448.88
2022-07-25T19:16:24.338Z,96456.19
2022-07-25T19:18:50.956Z,96471.16
2022-07-25T19:21:17.565Z,96470.22
2022-07-25T19:23:50.188Z,96480.94
2022-07-25T19:26:17.994Z,96472.19
2022-07-25T19:28:44.642Z,96479.78
2022-07-25T19:31:11.416Z,96480.22
2022-07-25T19:33:38.858Z,96484.34
2022-07-25T19:36:05.853Z,96485.06
2022-07-25T19:38:32.742Z,96479.53
2022-07-25T19:40:59.528Z,96469.72
2022-07-25T19:43:26.131Z,96465.84
2022-07-25T19:45:52.741Z,96455.69
2022-07-25T19:48:23.557Z,96458.25
2022-07-25T19:50:51.279Z,96449.19
2022-07-25T19:53:17.857Z,96447.53
2022-07-25T19:55:44.453Z,96451.09
2022-07-25T19:58:11.133Z,96443.78
2022-07-25T20:00:38.119Z,96440.94
2022-07-25T20:03:05.167Z,96440.34
2022-07-25T20:05:32.467Z,96438.22
2022-07-25T20:07:59.034Z,96444.91
2022-07-25T20:10:25.592Z,96438.91
2022-07-25T20:12:52.167Z,96439.13
2022-07-25T20:15:18.759Z,96440.16
2022-07-25T20:17:45.339Z,96446.47
2022-07-25T20:20:12.025Z,96445.72
2022-07-25T20:22:38.649Z,96449.56
2022-07-25T20:25:07.146Z,96442.22
2022-07-25T20:27:34.135Z,96436.97
2022-07-25T20:30:03.363Z,96434.59
2022-07-25T20:32:30.464Z,96432.78
2022-07-25T20:34:57.799Z,96441.22
2022-07-25T20:37:24.538Z,96442.09
2022-07-25T20:39:51.904Z,96446.59
2022-07-25T20:42:18.627Z,96458.03
2022-07-25T20:44:45.329Z,96457.38
2022-07-25T20:47:14.740Z,96448.13
2022-07-25T20:49:41.499Z,96456.31
2022-07-25T20:52:09.071Z,96450.50
2022-07-25T20:54:36.748Z,96462.78
2022-07-25T20:57:03.994Z,96465.22
2022-07-25T20:59:30.647Z,96463.34
2022-07-25T21:01:57.652Z,96475.19
2022-07-25T21:04:24.316Z,96479.16
2022-07-25T21:06:50.916Z,96479.44
2022-07-25T21:09:17.762Z,96491.88
2022-07-25T21:11:44.434Z,96501.88
2022-07-25T21:14:11.281Z,96513.72
2022-07-25T21:16:38.022Z,96527.19
2022-07-25T21:19:04.953Z,96536.09
2022-07-25T21:21:32.113Z,96565.34
2022-07-25T21:23:58.750Z,96576.78
2022-07-25T21:26:25.751Z,96587.91
2022-07-25T21:28:52.291Z,96580.66
2022-07-25T21:31:19.217Z,96584.53
2022-07-25T21:33:45.854Z,96591.53
2022-07-25T21:36:12.394Z,96600.38
2022-07-25T21:38:38.983Z,96610.09
2022-07-25T21:41:06.639Z,96621.72
2022-07-25T21:43:33.210Z,96646.00
2022-07-25T21:45:59.768Z,96646.56
2022-07-25T21:48:45.375Z,96658.28
2022-07-25T21:51:19.139Z,96647.75
2022-07-25T21:53:51.328Z,96651.84
2022-07-25T21:56:18.586Z,96676.69
2022-07-25T21:58:45.178Z,96690.53
2022-07-25T22:01:11.881Z,96700.03
2022-07-25T22:03:40.331Z,96704.88
2022-07-25T22:06:08.400Z,96704.31
2022-07-25T22:08:34.928Z,96717.72
2022-07-25T22:11:15.918Z,96704.25
2022-07-25T22:13:47.415Z,96722.06
2022-07-25T22:16:14.027Z,96763.72
2022-07-25T22:18:40.555Z,96756.03
2022-07-25T22:21:07.112Z,96787.63
2022-07-25T22:23:33.671Z,96825.88
2022-07-25T22:26:03.538Z,96845.41
2022-07-25T22:28:30.151Z,96853.94
2022-07-25T22:30:57.754Z,96870.81
2022-07-25T22:33:26.271Z,96870.94
2022-07-25T22:35:52.798Z,96885.97
2022-07-25T22:38:19.846Z,96892.38
2022-07-25T22:40:46.744Z,96900.41
2022-07-25T22:43:13.269Z,96897.78
2022-07-25T22:45:42.917Z,96898.63
2022-07-25T22:48:09.623Z,96907.41
2022-07-25T22:50:36.173Z,96912.09
2022-07-25T22:53:02.803Z,96920.66
2022-07-25T22:55:29.407Z,96925.25
2022-07-25T22:57:56.105Z,96938.28
2022-07-25T23:00:22.685Z,96946.16
2022-07-25T23:02:49.290Z,96949.84
2022-07-25T23:05:16.196Z,96962.41
2022-07-25T23:07:42.746Z,96960.72
2022-07-25T23:10:10.101Z,96971.00
2022-07-25T23:12:36.877Z,96978.06
2022-07-25T23:15:04.482Z,96985.75
2022-07-25T23:17:31.209Z,96992.34
2022-07-25T23:19:58.418Z,97000.38
2022-07-25T23:22:26.570Z,97007.44
2022-07-25T23:24:53.101Z,97013.78
2022-07-25T23:27:19.743Z,97020.22
2022-07-25T23:29:46.369Z,97029.97
2022-07-25T23:32:13.233Z,97030.19
2022-07-25T23:34:40.571Z,97031.28
2022-07-25T23:37:07.302Z,97029.59
2022-07-25T23:39:33.900Z,97026.78
2022-07-25T23:42:00.728Z,97021.59
2022-07-25T23:44:27.449Z,97013.13
2022-07-25T23:46:56.726Z,97020.28
2022-07-25T23:49:24.042Z,97021.28
2022-07-25T23:51:50.695Z,97027.63
2022-07-25T23:54:17.283Z,97024.81
2022-07-25T23:56:43.866Z,97026.84
2022-07-25T23:59:10.955Z,97035.88
